Time,TemperatureF,DewpointF,PressureIn,WindDirection,WindDirectionDegrees,WindSpeedMPH,WindSpeedGustMPH,Humidity,HourlyPrecipIn,Conditions,Clouds,dailyrainin,SoftwareType,DateUTC
2013-01-30 00:01:00,52.3,50.1,29.15,South,180,2.9,7.2,93,0.00,,,0.61,WUHU21623XXSP,2013-01-30 05:01:00,
2013-01-30 00:03:00,52.3,50.1,29.15,South,180,2.9,7.2,93,0.00,,,0.61,WUHU21623XXSP,2013-01-30 05:03:00,
2013-01-30 00:10:00,52.3,50.1,29.15,South,180,2.9,2.9,93,0.00,,,0.00,WUHU21623XXSP,2013-01-30 05:10:00,
2013-01-30 00:15:00,52.5,50.3,29.15,SSE,157,6.5,6.5,93,0.00,,,0.00,WUHU21623XXSP,2013-01-30 05:15:00,
2013-01-30 00:20:00,52.7,50.5,29.15,South,180,4.5,6.5,93,0.00,,,0.00,WUHU21623XXSP,2013-01-30 05:20:00,
2013-01-30 00:25:00,52.5,49.6,29.15,SSE,157,5.6,5.6,90,0.00,,,0.00,WUHU21623XXSP,2013-01-30 05:25:00,
2013-01-30 00:30:00,52.5,49.6,29.13,SE,135,9.6,9.6,90,0.00,,,0.00,WUHU21623XXSP,2013-01-30 05:30:00,
2013-01-30 00:35:00,52.5,50.3,29.12,South,180,1.8,9.6,93,0.00,,,0.00,WUHU21623XXSP,2013-01-30 05:35:00,
2013-01-30 00:40:00,52.5,49.6,29.12,SSE,157,1.8,8.7,90,0.00,,,0.00,WUHU21623XXSP,2013-01-30 05:40:00,
2013-01-30 00:45:00,52.5,50.3,29.12,South,180,3.1,8.7,93,0.00,,,0.00,WUHU21623XXSP,2013-01-30 05:45:00,
2013-01-30 00:50:00,52.5,50.3,29.12,South,180,2.5,5.8,93,0.00,,,0.00,WUHU21623XXSP,2013-01-30 05:50:00,
2013-01-30 00:55:00,52.5,50.3,29.11,SSE,157,2.0,2.7,93,0.00,,,0.00,WUHU21623XXSP,2013-01-30 05:55:00,
2013-01-30 01:00:00,52.5,50.3,29.10,SSE,157,4.7,4.7,93,0.00,,,0.00,WUHU21623XXSP,2013-01-30 06:00:00,
2013-01-30 01:05:00,52.5,50.3,29.09,South,180,0.0,4.7,93,0.00,,,0.00,WUHU21623XXSP,2013-01-30 06:05:00,
2013-01-30 01:10:00,52.3,50.1,29.08,SE,135,6.3,6.3,93,0.00,,,0.00,WUHU21623XXSP,2013-01-30 06:10:00,
2013-01-30 01:15:00,52.3,50.1,29.08,SSE,157,5.8,10.5,93,0.00,,,0.00,WUHU21623XXSP,2013-01-30 06:15:00,
2013-01-30 01:20:00,52.3,49.4,29.08,South,180,2.5,10.5,90,0.00,,,0.00,WUHU21623XXSP,2013-01-30 06:20:00,
2013-01-30 01:25:00,52.3,49.4,29.07,SSE,157,3.1,5.8,90,0.00,,,0.00,WUHU21623XXSP,2013-01-30 06:25:00,
2013-01-30 01:30:00,52.3,50.1,29.07,South,180,6.9,6.9,93,0.00,,,0.00,WUHU21623XXSP,2013-01-30 06:30:00,
2013-01-30 01:35:00,52.5,50.3,29.06,SE,135,5.1,6.9,93,0.00,,,0.00,WUHU21623XXSP,2013-01-30 06:35:00,
2013-01-30 01:40:00,52.5,50.3,29.05,SE,135,2.7,5.4,93,0.00,,,0.00,WUHU21623XXSP,2013-01-30 06:40:00,
2013-01-30 01:45:00,52.5,50.3,29.05,South,180,3.4,5.4,93,0.00,,,0.00,WUHU21623XXSP,2013-01-30 06:45:00,
2013-01-30 01:50:00,52.5,49.6,29.05,ESE,112,5.6,5.6,90,0.00,,,0.00,WUHU21623XXSP,2013-01-30 06:50:00,
2013-01-30 01:55:00,52.7,50.5,29.04,SSE,157,2.9,7.4,93,0.00,,,0.00,WUHU21623XXSP,2013-01-30 06:55:00,
2013-01-30 02:00:00,52.7,49.8,29.04,SSW,202,5.6,8.7,90,0.00,,,0.00,WUHU21623XXSP,2013-01-30 07:00:00,
2013-01-30 02:05:00,52.7,49.8,29.04,SE,135,4.5,8.7,90,0.00,,,0.00,WUHU21623XXSP,2013-01-30 07:05:00,
2013-01-30 02:10:00,52.9,50.0,29.03,South,180,1.1,6.9,90,0.00,,,0.00,WUHU21623XXSP,2013-01-30 07:10:00,
2013-01-30 02:15:00,53.1,50.9,29.02,SSE,157,5.1,6.3,93,0.00,,,0.00,WUHU21623XXSP,2013-01-30 07:15:00,
2013-01-30 02:20:00,53.1,50.2,29.02,South,180,2.0,5.4,90,0.00,,,0.00,WUHU21623XXSP,2013-01-30 07:20:00,
2013-01-30 02:25:00,53.1,50.2,29.01,SSW,202,0.0,5.6,90,0.00,,,0.00,WUHU21623XXSP,2013-01-30 07:25:00,
2013-01-30 02:31:00,53.1,50.2,29.01,South,180,2.0,5.6,90,0.00,,,0.00,WUHU21623XXSP,2013-01-30 07:31:00,
2013-01-30 02:36:00,53.1,50.2,29.00,South,180,4.5,4.5,90,0.00,,,0.00,WUHU21623XXSP,2013-01-30 07:36:00,
2013-01-30 02:41:00,53.2,50.3,29.00,SSE,157,6.5,6.5,90,0.00,,,0.00,WUHU21623XXSP,2013-01-30 07:41:00,
2013-01-30 02:46:00,53.2,51.0,29.00,South,180,0.4,6.5,93,0.00,,,0.00,WUHU21623XXSP,2013-01-30 07:46:00,
2013-01-30 02:51:00,53.2,51.0,28.99,SSE,157,3.1,5.1,93,0.00,,,0.00,WUHU21623XXSP,2013-01-30 07:51:00,
2013-01-30 02:56:00,53.4,51.2,28.99,SSE,157,0.0,5.1,93,0.00,,,0.00,WUHU21623XXSP,2013-01-30 07:56:00,
2013-01-30 03:01:00,53.6,51.4,28.99,SE,135,3.6,4.0,93,0.00,,,0.00,WUHU21623XXSP,2013-01-30 08:01:00,
2013-01-30 03:06:00,53.8,51.6,28.99,SSE,157,4.0,8.9,93,0.00,,,0.00,WUHU21623XXSP,2013-01-30 08:06:00,
2013-01-30 03:11:00,54.0,51.8,28.98,South,180,5.6,8.9,93,0.00,,,0.00,WUHU21623XXSP,2013-01-30 08:11:00,
2013-01-30 03:16:00,54.0,51.8,28.99,SSW,202,4.0,5.6,93,0.00,,,0.00,WUHU21623XXSP,2013-01-30 08:16:00,
2013-01-30 03:21:00,54.0,51.8,28.98,ESE,112,9.2,9.2,93,0.00,,,0.00,WUHU21623XXSP,2013-01-30 08:21:00,
2013-01-30 03:26:00,54.5,52.3,28.98,SE,135,4.7,9.2,93,0.00,,,0.00,WUHU21623XXSP,2013-01-30 08:26:00,
2013-01-30 03:31:00,54.9,52.0,28.97,SSE,157,4.0,5.6,90,0.00,,,0.00,WUHU21623XXSP,2013-01-30 08:31:00,
2013-01-30 03:36:00,55.0,52.1,28.97,South,180,0.0,5.8,90,0.00,,,0.00,WUHU21623XXSP,2013-01-30 08:36:00,
2013-01-30 03:41:00,55.0,52.1,28.97,South,180,1.6,6.0,90,0.00,,,0.00,WUHU21623XXSP,2013-01-30 08:41:00,
2013-01-30 03:46:00,55.2,52.3,28.96,South,180,1.6,6.0,90,0.00,,,0.00,WUHU21623XXSP,2013-01-30 08:46:00,
2013-01-30 03:51:00,55.6,52.7,28.96,ESE,112,2.7,5.1,90,0.00,,,0.00,WUHU21623XXSP,2013-01-30 08:51:00,
2013-01-30 03:56:00,55.8,52.9,28.95,South,180,4.5,4.5,90,0.00,,,0.00,WUHU21623XXSP,2013-01-30 08:56:00,
2013-01-30 04:01:00,56.1,53.2,28.95,SSE,157,4.0,6.3,90,0.00,,,0.00,WUHU21623XXSP,2013-01-30 09:01:00,
2013-01-30 04:06:00,56.3,53.4,28.96,WSW,247,4.0,9.2,90,0.00,,,0.00,WUHU21623XXSP,2013-01-30 09:06:00,
2013-01-30 04:11:00,56.7,53.8,28.99,WNW,292,5.6,9.2,90,0.00,,,0.00,WUHU21623XXSP,2013-01-30 09:11:00,
2013-01-30 04:16:00,56.3,53.4,28.99,NW,315,1.3,5.6,90,0.10,,,0.10,WUHU21623XXSP,2013-01-30 09:16:00,
2013-01-30 04:21:00,55.8,52.9,28.99,WSW,247,0.0,4.5,90,0.10,,,0.10,WUHU21623XXSP,2013-01-30 09:21:00,
2013-01-30 04:26:00,55.2,52.3,28.99,WNW,292,0.0,5.4,90,0.12,,,0.12,WUHU21623XXSP,2013-01-30 09:26:00,
2013-01-30 04:31:00,54.5,51.6,28.99,WNW,292,0.0,5.4,90,0.14,,,0.14,WUHU21623XXSP,2013-01-30 09:31:00,
2013-01-30 04:36:00,54.3,51.4,28.99,NNW,337,2.0,2.2,90,0.14,,,0.14,WUHU21623XXSP,2013-01-30 09:36:00,
2013-01-30 04:41:00,53.8,50.9,28.99,NNW,337,0.0,2.2,90,0.14,,,0.14,WUHU21623XXSP,2013-01-30 09:41:00,
2013-01-30 04:46:00,53.4,50.5,28.99,East,90,0.0,3.8,90,0.14,,,0.14,WUHU21623XXSP,2013-01-30 09:46:00,
2013-01-30 04:51:00,53.1,50.2,28.99,NNW,337,0.0,3.8,90,0.14,,,0.14,WUHU21623XXSP,2013-01-30 09:51:00,
2013-01-30 04:56:00,52.9,50.0,28.99,WNW,292,0.0,0.0,90,0.14,,,0.14,WUHU21623XXSP,2013-01-30 09:56:00,
2013-01-30 05:01:00,52.7,49.8,28.99,NNW,337,0.0,0.0,90,0.14,,,0.14,WUHU21623XXSP,2013-01-30 10:01:00,
2013-01-30 05:06:00,52.5,49.6,29.00,NW,315,0.0,0.0,90,0.14,,,0.14,WUHU21623XXSP,2013-01-30 10:06:00,
2013-01-30 05:11:00,52.2,49.3,28.99,NNW,337,0.0,0.0,90,0.12,,,0.14,WUHU21623XXSP,2013-01-30 10:11:00,
2013-01-30 05:16:00,52.0,49.1,28.99,NNW,337,0.0,0.0,90,0.04,,,0.14,WUHU21623XXSP,2013-01-30 10:16:00,
2013-01-30 05:21:00,52.0,49.1,28.99,NNW,337,0.0,0.0,90,0.02,,,0.14,WUHU21623XXSP,2013-01-30 10:21:00,
2013-01-30 05:26:00,51.8,48.9,28.99,NNW,337,0.0,0.0,90,0.04,,,0.16,WUHU21623XXSP,2013-01-30 10:26:00,
2013-01-30 05:31:00,51.4,48.5,29.00,NNW,337,0.0,0.0,90,0.02,,,0.16,WUHU21623XXSP,2013-01-30 10:31:00,
2013-01-30 05:36:00,51.4,48.5,29.00,NNW,337,0.0,0.0,90,0.02,,,0.16,WUHU21623XXSP,2013-01-30 10:36:00,
2013-01-30 05:41:00,51.3,48.4,29.00,NNW,337,0.0,0.0,90,0.02,,,0.16,WUHU21623XXSP,2013-01-30 10:41:00,
2013-01-30 05:46:00,51.1,48.2,29.01,WNW,292,0.0,0.0,90,0.02,,,0.16,WUHU21623XXSP,2013-01-30 10:46:00,
2013-01-30 05:51:00,50.9,48.0,29.02,WNW,292,0.0,0.0,90,0.02,,,0.16,WUHU21623XXSP,2013-01-30 10:51:00,
2013-01-30 05:56:00,50.9,48.0,29.03,West,270,0.0,0.0,90,0.02,,,0.16,WUHU21623XXSP,2013-01-30 10:56:00,
2013-01-30 06:01:00,51.1,48.2,29.04,West,270,0.0,0.0,90,0.02,,,0.16,WUHU21623XXSP,2013-01-30 11:01:00,
2013-01-30 06:06:00,51.1,48.2,29.04,West,270,2.7,2.7,90,0.02,,,0.16,WUHU21623XXSP,2013-01-30 11:06:00,
2013-01-30 06:11:00,50.9,48.0,29.03,West,270,0.0,2.7,90,0.02,,,0.16,WUHU21623XXSP,2013-01-30 11:11:00,
2013-01-30 06:16:00,50.9,48.0,29.03,WNW,292,0.0,0.0,90,0.02,,,0.16,WUHU21623XXSP,2013-01-30 11:16:00,
2013-01-30 06:21:00,50.9,48.0,29.03,WNW,292,0.0,0.0,90,0.00,,,0.16,WUHU21623XXSP,2013-01-30 11:21:00,
2013-01-30 06:26:00,50.7,48.6,29.02,WNW,292,0.0,0.0,93,0.00,,,0.16,WUHU21623XXSP,2013-01-30 11:26:00,
2013-01-30 06:31:00,50.7,48.6,29.02,WNW,292,0.0,0.0,93,0.00,,,0.16,WUHU21623XXSP,2013-01-30 11:31:00,
2013-01-30 06:37:00,50.5,48.4,29.02,WNW,292,0.0,0.0,93,0.00,,,0.16,WUHU21623XXSP,2013-01-30 11:37:00,
2013-01-30 06:42:00,50.4,48.3,29.02,WNW,292,0.0,0.0,93,0.00,,,0.16,WUHU21623XXSP,2013-01-30 11:42:00,
2013-01-30 06:47:00,50.4,48.3,29.02,WNW,292,0.0,0.0,93,0.00,,,0.16,WUHU21623XXSP,2013-01-30 11:47:00,
2013-01-30 06:52:00,50.4,48.3,29.02,WNW,292,0.0,0.0,93,0.00,,,0.16,WUHU21623XXSP,2013-01-30 11:52:00,
2013-01-30 06:57:00,50.2,48.1,29.01,WNW,292,0.0,0.0,93,0.00,,,0.16,WUHU21623XXSP,2013-01-30 11:57:00,
2013-01-30 07:02:00,50.2,48.1,29.00,WNW,292,0.0,0.0,93,0.00,,,0.16,WUHU21623XXSP,2013-01-30 12:02:00,
2013-01-30 07:07:00,49.8,47.7,28.98,WNW,292,0.0,0.0,93,0.02,,,0.18,WUHU21623XXSP,2013-01-30 12:07:00,
2013-01-30 07:12:00,49.6,47.5,29.00,WNW,292,0.0,0.0,93,0.02,,,0.18,WUHU21623XXSP,2013-01-30 12:12:00,
2013-01-30 07:17:00,49.6,47.5,29.00,WNW,292,0.0,0.0,93,0.05,,,0.21,WUHU21623XXSP,2013-01-30 12:17:00,
2013-01-30 07:22:00,49.3,47.2,29.01,WNW,292,0.0,0.0,93,0.05,,,0.21,WUHU21623XXSP,2013-01-30 12:22:00,
2013-01-30 07:27:00,49.1,47.0,29.01,WNW,292,0.0,0.0,93,0.05,,,0.21,WUHU21623XXSP,2013-01-30 12:27:00,
2013-01-30 07:32:00,48.9,46.8,29.02,WNW,292,0.0,0.0,93,0.05,,,0.21,WUHU21623XXSP,2013-01-30 12:32:00,
2013-01-30 07:37:00,48.7,46.6,29.01,WNW,292,0.0,0.0,93,0.05,,,0.21,WUHU21623XXSP,2013-01-30 12:37:00,
2013-01-30 07:42:00,48.4,46.3,28.99,WNW,292,0.0,0.0,93,0.05,,,0.21,WUHU21623XXSP,2013-01-30 12:42:00,
2013-01-30 07:47:00,48.4,46.3,28.99,South,180,0.0,1.1,93,0.05,,,0.21,WUHU21623XXSP,2013-01-30 12:47:00,
2013-01-30 07:52:00,48.2,46.1,28.98,South,180,0.0,1.1,93,0.05,,,0.21,WUHU21623XXSP,2013-01-30 12:52:00,
2013-01-30 07:57:00,48.0,45.9,28.98,South,180,0.0,1.1,93,0.05,,,0.21,WUHU21623XXSP,2013-01-30 12:57:00,
2013-01-30 08:02:00,47.8,45.7,28.98,South,180,0.0,0.0,93,0.03,,,0.21,WUHU21623XXSP,2013-01-30 13:02:00,
2013-01-30 08:07:00,47.8,45.7,28.97,South,180,0.0,0.0,93,0.03,,,0.21,WUHU21623XXSP,2013-01-30 13:07:00,
2013-01-30 08:12:00,47.8,45.7,28.95,South,180,0.0,0.0,93,0.00,,,0.21,WUHU21623XXSP,2013-01-30 13:12:00,
2013-01-30 08:17:00,47.8,45.7,28.96,South,180,0.0,0.0,93,0.00,,,0.21,WUHU21623XXSP,2013-01-30 13:17:00,
2013-01-30 08:22:00,47.8,45.7,28.96,South,180,0.0,0.0,93,0.00,,,0.21,WUHU21623XXSP,2013-01-30 13:22:00,
2013-01-30 08:27:00,47.8,45.7,28.96,SE,135,2.5,2.5,93,0.00,,,0.21,WUHU21623XXSP,2013-01-30 13:27:00,
2013-01-30 08:32:00,47.8,45.7,28.96,South,180,5.1,5.1,93,0.00,,,0.21,WUHU21623XXSP,2013-01-30 13:32:00,
2013-01-30 08:37:00,47.7,45.6,28.94,SSE,157,2.0,5.1,93,0.00,,,0.21,WUHU21623XXSP,2013-01-30 13:37:00,
2013-01-30 08:42:00,47.7,45.6,28.94,SSE,157,3.6,4.0,93,0.00,,,0.21,WUHU21623XXSP,2013-01-30 13:42:00,
2013-01-30 08:47:00,48.0,45.9,28.95,SSE,157,0.0,4.0,93,0.00,,,0.21,WUHU21623XXSP,2013-01-30 13:47:00,
2013-01-30 08:52:00,48.0,45.9,28.97,SSE,157,0.0,1.8,93,0.00,,,0.21,WUHU21623XXSP,2013-01-30 13:52:00,
2013-01-30 08:58:00,48.4,46.3,28.97,SSE,157,0.0,0.0,93,0.00,,,0.21,WUHU21623XXSP,2013-01-30 13:58:00,
2013-01-30 09:03:00,48.4,46.3,28.96,SSE,157,0.0,0.0,93,0.00,,,0.21,WUHU21623XXSP,2013-01-30 14:03:00,
2013-01-30 09:08:00,48.6,46.5,28.96,SSE,157,0.0,0.0,93,0.00,,,0.21,WUHU21623XXSP,2013-01-30 14:08:00,
2013-01-30 09:13:00,48.7,46.6,28.95,SE,135,0.0,0.0,93,0.00,,,0.21,WUHU21623XXSP,2013-01-30 14:13:00,
2013-01-30 09:18:00,48.9,46.8,28.93,SE,135,0.0,0.0,93,0.00,,,0.21,WUHU21623XXSP,2013-01-30 14:18:00,
2013-01-30 09:23:00,48.9,46.8,28.95,SE,135,0.0,0.0,93,0.00,,,0.21,WUHU21623XXSP,2013-01-30 14:23:00,
2013-01-30 09:28:00,49.1,47.0,28.95,SW,225,0.0,0.0,93,0.00,,,0.21,WUHU21623XXSP,2013-01-30 14:28:00,
2013-01-30 09:33:00,49.5,47.4,28.96,SSW,202,0.0,0.0,93,0.00,,,0.21,WUHU21623XXSP,2013-01-30 14:33:00,
2013-01-30 09:38:00,49.5,47.4,28.97,SSE,157,0.0,0.0,93,0.00,,,0.21,WUHU21623XXSP,2013-01-30 14:38:00,
2013-01-30 09:43:00,49.6,47.5,28.95,SSE,157,0.0,0.0,93,0.00,,,0.21,WUHU21623XXSP,2013-01-30 14:43:00,
2013-01-30 09:48:00,49.6,47.5,28.97,SSE,157,0.0,0.0,93,0.00,,,0.21,WUHU21623XXSP,2013-01-30 14:48:00,
2013-01-30 09:53:00,49.6,47.5,28.99,SSE,157,0.0,0.0,93,0.00,,,0.21,WUHU21623XXSP,2013-01-30 14:53:00,
2013-01-30 09:58:00,49.6,47.5,28.98,SE,135,0.0,0.0,93,0.00,,,0.21,WUHU21623XXSP,2013-01-30 14:58:00,
2013-01-30 10:03:00,49.6,47.5,28.99,SE,135,0.0,0.0,93,0.00,,,0.21,WUHU21623XXSP,2013-01-30 15:03:00,
2013-01-30 10:08:00,49.8,47.7,28.99,SSE,157,0.0,0.0,93,0.00,,,0.21,WUHU21623XXSP,2013-01-30 15:08:00,
2013-01-30 10:13:00,50.0,47.9,28.99,South,180,0.0,0.0,93,0.00,,,0.21,WUHU21623XXSP,2013-01-30 15:13:00,
2013-01-30 10:18:00,49.8,47.7,28.99,South,180,0.0,0.0,93,0.00,,,0.21,WUHU21623XXSP,2013-01-30 15:18:00,
2013-01-30 10:23:00,49.8,47.7,28.97,SE,135,0.0,0.0,93,0.00,,,0.21,WUHU21623XXSP,2013-01-30 15:23:00,
2013-01-30 10:28:00,50.2,48.1,29.00,WSW,247,0.0,0.0,93,0.00,,,0.21,WUHU21623XXSP,2013-01-30 15:28:00,
2013-01-30 10:33:00,50.2,48.1,29.01,SSW,202,0.0,0.0,93,0.00,,,0.21,WUHU21623XXSP,2013-01-30 15:33:00,
2013-01-30 10:38:00,50.4,48.3,29.00,SSW,202,0.0,0.0,93,0.00,,,0.21,WUHU21623XXSP,2013-01-30 15:38:00,
2013-01-30 10:43:00,50.4,48.3,29.01,SW,225,0.0,0.0,93,0.00,,,0.21,WUHU21623XXSP,2013-01-30 15:43:00,
2013-01-30 10:48:00,50.4,48.3,29.02,SSW,202,0.0,0.0,93,0.00,,,0.21,WUHU21623XXSP,2013-01-30 15:48:00,
2013-01-30 10:53:00,50.4,48.3,29.02,SSW,202,0.0,0.0,93,0.00,,,0.21,WUHU21623XXSP,2013-01-30 15:53:00,
2013-01-30 10:58:00,50.4,48.3,29.01,SSW,202,0.0,0.0,93,0.00,,,0.21,WUHU21623XXSP,2013-01-30 15:58:00,
2013-01-30 11:03:00,50.4,48.3,29.00,South,180,0.0,0.0,93,0.00,,,0.21,WUHU21623XXSP,2013-01-30 16:03:00,
2013-01-30 11:08:00,50.4,48.3,29.00,South,180,0.0,1.1,93,0.00,,,0.21,WUHU21623XXSP,2013-01-30 16:08:00,
2013-01-30 11:13:00,50.4,48.3,28.99,South,180,0.0,1.1,93,0.00,,,0.21,WUHU21623XXSP,2013-01-30 16:13:00,
2013-01-30 11:18:00,50.4,48.3,28.99,South,180,0.0,0.0,93,0.00,,,0.21,WUHU21623XXSP,2013-01-30 16:18:00,
2013-01-30 11:23:00,50.4,48.3,28.99,South,180,0.0,0.0,93,0.00,,,0.21,WUHU21623XXSP,2013-01-30 16:23:00,
2013-01-30 11:28:00,50.4,48.3,29.00,South,180,0.0,5.4,93,0.00,,,0.21,WUHU21623XXSP,2013-01-30 16:28:00,
2013-01-30 11:33:00,50.5,48.4,29.00,South,180,0.0,5.4,93,0.00,,,0.21,WUHU21623XXSP,2013-01-30 16:33:00,
2013-01-30 11:38:00,50.7,49.3,28.99,South,180,0.0,0.0,95,0.00,,,0.21,WUHU21623XXSP,2013-01-30 16:38:00,
2013-01-30 11:43:00,51.1,49.7,28.97,South,180,0.0,0.0,95,0.00,,,0.21,WUHU21623XXSP,2013-01-30 16:43:00,
2013-01-30 11:48:00,51.4,49.3,28.95,South,180,0.0,4.5,93,0.00,,,0.21,WUHU21623XXSP,2013-01-30 16:48:00,
2013-01-30 11:53:00,51.4,49.3,28.95,South,180,0.0,4.5,93,0.00,,,0.21,WUHU21623XXSP,2013-01-30 16:53:00,
2013-01-30 11:58:00,51.8,49.7,28.95,South,180,0.0,0.0,93,0.00,,,0.21,WUHU21623XXSP,2013-01-30 16:58:00,
2013-01-30 12:03:00,52.0,49.1,28.95,South,180,0.4,2.0,90,0.00,,,0.21,WUHU21623XXSP,2013-01-30 17:03:00,
2013-01-30 12:08:00,52.2,50.1,28.96,South,180,0.0,2.0,93,0.00,,,0.21,WUHU21623XXSP,2013-01-30 17:08:00,
2013-01-30 12:13:00,52.2,49.3,28.96,South,180,0.0,0.0,90,0.00,,,0.21,WUHU21623XXSP,2013-01-30 17:13:00,
2013-01-30 12:18:00,52.3,50.1,28.95,South,180,0.0,2.0,93,0.00,,,0.21,WUHU21623XXSP,2013-01-30 17:18:00,
2013-01-30 12:23:00,52.5,50.3,28.96,SSE,157,0.0,2.0,93,0.00,,,0.21,WUHU21623XXSP,2013-01-30 17:23:00,
2013-01-30 12:28:00,52.7,50.5,28.95,South,180,3.8,3.8,93,0.00,,,0.21,WUHU21623XXSP,2013-01-30 17:28:00,
2013-01-30 12:34:00,52.7,49.8,28.95,South,180,0.0,3.8,90,0.00,,,0.21,WUHU21623XXSP,2013-01-30 17:34:00,
2013-01-30 12:39:00,52.7,49.8,28.95,South,180,0.0,0.7,90,0.00,,,0.21,WUHU21623XXSP,2013-01-30 17:39:00,
2013-01-30 12:44:00,52.5,49.6,28.95,South,180,1.1,1.1,90,0.00,,,0.21,WUHU21623XXSP,2013-01-30 17:44:00,
2013-01-30 12:49:00,52.5,49.6,28.94,South,180,0.0,1.1,90,0.00,,,0.21,WUHU21623XXSP,2013-01-30 17:49:00,
2013-01-30 12:54:00,52.5,49.6,28.93,South,180,1.3,1.3,90,0.00,,,0.21,WUHU21623XXSP,2013-01-30 17:54:00,
2013-01-30 12:59:00,52.5,49.6,28.92,SW,225,0.0,1.3,90,0.00,,,0.21,WUHU21623XXSP,2013-01-30 17:59:00,
2013-01-30 13:04:00,52.7,49.8,28.92,South,180,0.0,2.7,90,0.00,,,0.21,WUHU21623XXSP,2013-01-30 18:04:00,
2013-01-30 13:09:00,52.7,49.8,28.91,South,180,1.3,2.7,90,0.00,,,0.21,WUHU21623XXSP,2013-01-30 18:09:00,
2013-01-30 13:14:00,52.9,50.0,28.90,South,180,5.8,5.8,90,0.00,,,0.21,WUHU21623XXSP,2013-01-30 18:14:00,
2013-01-30 13:19:00,53.1,50.2,28.91,South,180,1.3,5.8,90,0.00,,,0.21,WUHU21623XXSP,2013-01-30 18:19:00,
2013-01-30 13:24:00,52.9,50.0,28.91,SSE,157,0.0,2.0,90,0.00,,,0.21,WUHU21623XXSP,2013-01-30 18:24:00,
2013-01-30 13:29:00,52.9,50.0,28.92,South,180,0.0,5.8,90,0.00,,,0.21,WUHU21623XXSP,2013-01-30 18:29:00,
2013-01-30 13:34:00,52.7,49.8,28.91,SSE,157,0.0,5.8,90,0.00,,,0.21,WUHU21623XXSP,2013-01-30 18:34:00,
2013-01-30 13:39:00,52.5,49.6,28.92,South,180,0.0,0.0,90,0.00,,,0.21,WUHU21623XXSP,2013-01-30 18:39:00,
2013-01-30 13:44:00,52.3,49.4,28.91,South,180,0.0,1.1,90,0.00,,,0.21,WUHU21623XXSP,2013-01-30 18:44:00,
2013-01-30 13:49:00,52.2,49.3,28.91,South,180,6.5,6.5,90,0.00,,,0.21,WUHU21623XXSP,2013-01-30 18:49:00,
2013-01-30 13:54:00,52.2,49.3,28.91,South,180,0.0,6.5,90,0.00,,,0.21,WUHU21623XXSP,2013-01-30 18:54:00,
2013-01-30 13:59:00,52.0,49.1,28.92,SSE,157,1.8,2.5,90,0.00,,,0.21,WUHU21623XXSP,2013-01-30 18:59:00,
2013-01-30 14:04:00,52.0,49.1,28.91,South,180,2.7,3.6,90,0.00,,,0.21,WUHU21623XXSP,2013-01-30 19:04:00,
2013-01-30 14:09:00,51.6,48.7,28.92,South,180,0.0,4.9,90,0.00,,,0.21,WUHU21623XXSP,2013-01-30 19:09:00,
2013-01-30 14:14:00,51.6,48.7,28.91,South,180,1.8,6.3,90,0.00,,,0.21,WUHU21623XXSP,2013-01-30 19:14:00,
2013-01-30 14:19:00,51.4,48.5,28.92,South,180,2.9,6.3,90,0.00,,,0.21,WUHU21623XXSP,2013-01-30 19:19:00,
2013-01-30 14:24:00,51.4,48.5,28.92,South,180,3.8,3.8,90,0.00,,,0.21,WUHU21623XXSP,2013-01-30 19:24:00,
2013-01-30 14:29:00,51.3,48.4,28.90,South,180,2.7,3.8,90,0.00,,,0.21,WUHU21623XXSP,2013-01-30 19:29:00,
2013-01-30 14:34:00,51.3,48.4,28.89,South,180,0.0,2.7,90,0.00,,,0.21,WUHU21623XXSP,2013-01-30 19:34:00,
2013-01-30 14:39:00,51.3,48.4,28.89,SSW,202,0.0,2.0,90,0.00,,,0.21,WUHU21623XXSP,2013-01-30 19:39:00,
2013-01-30 14:44:00,50.9,48.0,28.89,South,180,2.0,2.0,90,0.00,,,0.21,WUHU21623XXSP,2013-01-30 19:44:00,
2013-01-30 14:49:00,51.3,48.4,28.89,South,180,0.0,2.0,90,0.00,,,0.21,WUHU21623XXSP,2013-01-30 19:49:00,
2013-01-30 14:54:00,51.3,48.4,28.89,SSE,157,1.8,2.2,90,0.00,,,0.21,WUHU21623XXSP,2013-01-30 19:54:00,
2013-01-30 14:59:00,51.1,48.2,28.89,South,180,0.0,5.4,90,0.00,,,0.21,WUHU21623XXSP,2013-01-30 19:59:00,
2013-01-30 15:04:00,50.9,48.0,28.89,South,180,0.0,5.4,90,0.00,,,0.21,WUHU21623XXSP,2013-01-30 20:04:00,
2013-01-30 15:09:00,50.9,48.0,28.88,South,180,0.0,3.6,90,0.00,,,0.21,WUHU21623XXSP,2013-01-30 20:09:00,
2013-01-30 15:14:00,50.9,48.0,28.88,South,180,1.3,3.8,90,0.00,,,0.21,WUHU21623XXSP,2013-01-30 20:14:00,
2013-01-30 15:19:00,50.7,47.8,28.90,South,180,0.0,3.8,90,0.00,,,0.21,WUHU21623XXSP,2013-01-30 20:19:00,
2013-01-30 15:24:00,50.7,48.6,28.90,South,180,2.5,2.5,93,0.00,,,0.21,WUHU21623XXSP,2013-01-30 20:24:00,
2013-01-30 15:26:00,50.7,48.6,28.89,South,180,4.7,4.7,93,0.00,,,0.21,WUHU21623XXSP,2013-01-30 20:26:00,
2013-01-30 15:30:00,50.7,48.6,28.88,SSE,157,0.0,4.7,93,0.00,,,0.21,WUHU21623XXSP,2013-01-30 20:30:00,
2013-01-30 15:36:00,50.7,49.3,28.86,South,180,0.0,1.1,95,0.00,,,0.21,WUHU21623XXSP,2013-01-30 20:36:00,
2013-01-30 15:41:00,50.7,49.3,28.85,South,180,0.0,0.0,95,0.00,,,0.21,WUHU21623XXSP,2013-01-30 20:41:00,
2013-01-30 15:45:00,50.7,49.3,28.84,South,180,0.0,0.0,95,0.00,,,0.21,WUHU21623XXSP,2013-01-30 20:45:00,
2013-01-30 15:51:00,50.7,49.3,28.84,SE,135,0.0,2.0,95,0.00,,,0.21,WUHU21623XXSP,2013-01-30 20:51:00,
2013-01-30 15:56:00,50.7,49.3,28.84,SE,135,0.0,0.0,95,0.00,,,0.21,WUHU21623XXSP,2013-01-30 20:56:00,
2013-01-30 16:08:00,50.7,49.3,28.86,South,180,2.7,5.6,95,0.00,,,0.21,WUHU21623XXSP,2013-01-30 21:08:00,
2013-01-30 16:13:00,50.7,49.3,28.88,South,180,3.1,3.8,95,0.00,,,0.21,WUHU21623XXSP,2013-01-30 21:13:00,
2013-01-30 16:18:00,50.7,48.6,28.87,South,180,0.0,3.1,93,0.00,,,0.21,WUHU21623XXSP,2013-01-30 21:18:00,
2013-01-30 16:23:00,50.7,49.3,28.87,South,180,0.0,0.0,95,0.00,,,0.21,WUHU21623XXSP,2013-01-30 21:23:00,
2013-01-30 16:28:00,50.7,49.3,28.86,South,180,0.0,0.0,95,0.00,,,0.21,WUHU21623XXSP,2013-01-30 21:28:00,
2013-01-30 16:33:00,50.5,49.1,28.86,South,180,0.0,0.0,95,0.00,,,0.21,WUHU21623XXSP,2013-01-30 21:33:00,
2013-01-30 16:38:00,50.7,49.3,28.86,SSW,202,1.6,2.9,95,0.00,,,0.21,WUHU21623XXSP,2013-01-30 21:38:00,
2013-01-30 16:43:00,50.7,49.3,28.85,South,180,0.0,3.8,95,0.00,,,0.21,WUHU21623XXSP,2013-01-30 21:43:00,
2013-01-30 16:48:00,50.7,49.3,28.85,SSE,157,0.4,3.8,95,0.00,,,0.21,WUHU21623XXSP,2013-01-30 21:48:00,
2013-01-30 16:53:00,50.7,49.3,28.84,SSE,157,0.0,0.4,95,0.00,,,0.21,WUHU21623XXSP,2013-01-30 21:53:00,
2013-01-30 16:58:00,50.7,49.3,28.85,SSW,202,0.0,1.8,95,0.00,,,0.21,WUHU21623XXSP,2013-01-30 21:58:00,
2013-01-30 17:03:00,50.7,49.3,28.85,South,180,3.1,3.1,95,0.00,,,0.21,WUHU21623XXSP,2013-01-30 22:03:00,
2013-01-30 17:08:00,50.4,48.3,28.85,South,180,0.0,3.1,93,0.00,,,0.21,WUHU21623XXSP,2013-01-30 22:08:00,
2013-01-30 17:13:00,50.4,48.3,28.84,SE,135,0.0,1.1,93,0.00,,,0.21,WUHU21623XXSP,2013-01-30 22:13:00,
2013-01-30 17:18:00,50.4,48.3,28.84,SSE,157,0.0,1.3,93,0.00,,,0.21,WUHU21623XXSP,2013-01-30 22:18:00,
2013-01-30 17:23:00,50.2,48.1,28.84,South,180,0.0,1.3,93,0.00,,,0.21,WUHU21623XXSP,2013-01-30 22:23:00,
2013-01-30 17:28:00,50.2,48.1,28.83,South,180,1.6,3.1,93,0.00,,,0.21,WUHU21623XXSP,2013-01-30 22:28:00,
2013-01-30 17:33:00,49.8,47.7,28.83,SSE,157,0.0,3.1,93,0.00,,,0.21,WUHU21623XXSP,2013-01-30 22:33:00,
2013-01-30 17:38:00,49.6,47.5,28.82,South,180,2.2,3.1,93,0.00,,,0.21,WUHU21623XXSP,2013-01-30 22:38:00,
2013-01-30 17:43:00,49.5,47.4,28.83,SE,135,0.0,3.1,93,0.00,,,0.21,WUHU21623XXSP,2013-01-30 22:43:00,
2013-01-30 17:48:00,49.1,47.0,28.82,South,180,2.5,3.1,93,0.00,,,0.21,WUHU21623XXSP,2013-01-30 22:48:00,
2013-01-30 17:53:00,49.1,47.0,28.83,SSE,157,0.0,2.5,93,0.00,,,0.21,WUHU21623XXSP,2013-01-30 22:53:00,
2013-01-30 17:58:00,48.9,46.8,28.82,South,180,1.6,2.5,93,0.00,,,0.21,WUHU21623XXSP,2013-01-30 22:58:00,
2013-01-30 18:03:00,48.7,46.6,28.82,South,180,3.4,3.4,93,0.00,,,0.21,WUHU21623XXSP,2013-01-30 23:03:00,
2013-01-30 18:08:00,48.7,46.6,28.82,South,180,4.3,4.3,93,0.00,,,0.21,WUHU21623XXSP,2013-01-30 23:08:00,
2013-01-30 18:13:00,48.6,46.5,28.81,SSE,157,1.1,5.6,93,0.00,,,0.21,WUHU21623XXSP,2013-01-30 23:13:00,
2013-01-30 18:18:00,48.7,46.6,28.81,South,180,2.0,5.6,93,0.00,,,0.21,WUHU21623XXSP,2013-01-30 23:18:00,
2013-01-30 18:23:00,48.7,46.6,28.80,SSE,157,0.0,5.4,93,0.00,,,0.21,WUHU21623XXSP,2013-01-30 23:23:00,
2013-01-30 18:28:00,48.7,46.6,28.81,South,180,1.6,5.4,93,0.00,,,0.21,WUHU21623XXSP,2013-01-30 23:28:00,
2013-01-30 18:33:00,48.7,46.6,28.81,SE,135,3.1,3.1,93,0.00,,,0.21,WUHU21623XXSP,2013-01-30 23:33:00,
2013-01-30 18:38:00,48.7,46.6,28.81,South,180,2.5,3.1,93,0.00,,,0.21,WUHU21623XXSP,2013-01-30 23:38:00,
2013-01-30 18:43:00,48.7,46.6,28.81,South,180,5.8,5.8,93,0.00,,,0.21,WUHU21623XXSP,2013-01-30 23:43:00,
2013-01-30 18:48:00,48.6,46.5,28.80,SE,135,5.6,5.8,93,0.00,,,0.21,WUHU21623XXSP,2013-01-30 23:48:00,
2013-01-30 18:53:00,48.6,46.5,28.81,South,180,2.5,5.6,93,0.00,,,0.21,WUHU21623XXSP,2013-01-30 23:53:00,
2013-01-30 18:58:00,48.4,46.3,28.81,SSW,202,0.7,4.7,93,0.00,,,0.21,WUHU21623XXSP,2013-01-30 23:58:00,
2013-01-30 19:03:00,47.8,45.7,28.82,SW,225,4.5,4.7,93,0.00,,,0.21,WUHU21623XXSP,2013-01-31 00:03:00,
2013-01-30 19:08:00,46.9,44.1,28.82,SSW,202,4.7,4.7,90,0.00,,,0.21,WUHU21623XXSP,2013-01-31 00:08:00,
2013-01-30 19:13:00,46.0,43.2,28.83,SW,225,2.2,7.4,90,0.00,,,0.21,WUHU21623XXSP,2013-01-31 00:13:00,
2013-01-30 19:18:00,45.5,42.7,28.83,SW,225,7.2,7.4,90,0.00,,,0.21,WUHU21623XXSP,2013-01-31 00:18:00,
2013-01-30 19:23:00,44.8,41.3,28.81,SSW,202,0.0,11.6,88,0.02,,,0.23,WUHU21623XXSP,2013-01-31 00:23:00,
2013-01-30 19:28:00,44.2,40.0,28.82,SW,225,4.9,11.6,85,0.04,,,0.25,WUHU21623XXSP,2013-01-31 00:28:00,
2013-01-30 19:33:00,43.9,39.7,28.82,WSW,247,3.4,5.1,85,0.04,,,0.25,WUHU21623XXSP,2013-01-31 00:33:00,
2013-01-30 19:38:00,43.5,40.0,28.83,SW,225,2.9,4.5,88,0.04,,,0.25,WUHU21623XXSP,2013-01-31 00:38:00,
2013-01-30 19:43:00,43.2,39.7,28.81,SW,225,0.0,3.4,88,0.04,,,0.25,WUHU21623XXSP,2013-01-31 00:43:00,
2013-01-30 19:48:00,43.2,39.7,28.81,WSW,247,0.0,2.9,88,0.04,,,0.25,WUHU21623XXSP,2013-01-31 00:48:00,
2013-01-30 19:53:00,43.0,40.2,28.81,WSW,247,0.0,6.5,90,0.04,,,0.25,WUHU21623XXSP,2013-01-31 00:53:00,
2013-01-30 19:58:00,42.4,39.6,28.81,SSW,202,0.0,6.5,90,0.04,,,0.25,WUHU21623XXSP,2013-01-31 00:58:00,
2013-01-30 20:03:00,42.4,39.6,28.81,SSW,202,0.0,1.3,90,0.06,,,0.27,WUHU21623XXSP,2013-01-31 01:03:00,
2013-01-30 20:08:00,42.4,39.6,28.82,South,180,0.0,0.0,90,0.06,,,0.27,WUHU21623XXSP,2013-01-31 01:08:00,
2013-01-30 20:13:00,42.3,39.5,28.82,SSW,202,0.0,0.0,90,0.06,,,0.27,WUHU21623XXSP,2013-01-31 01:13:00,
2013-01-30 20:18:00,41.9,39.1,28.82,SSW,202,0.0,0.0,90,0.04,,,0.27,WUHU21623XXSP,2013-01-31 01:18:00,
2013-01-30 20:23:00,41.7,38.9,28.82,SSW,202,0.0,1.1,90,0.04,,,0.27,WUHU21623XXSP,2013-01-31 01:23:00,
2013-01-30 20:28:00,41.9,39.1,28.82,SSW,202,0.0,1.1,90,0.02,,,0.27,WUHU21623XXSP,2013-01-31 01:28:00,
2013-01-30 20:33:00,41.7,38.9,28.83,South,180,0.0,2.0,90,0.02,,,0.27,WUHU21623XXSP,2013-01-31 01:33:00,
2013-01-30 20:38:00,41.4,38.6,28.82,WNW,292,6.0,6.0,90,0.02,,,0.27,WUHU21623XXSP,2013-01-31 01:38:00,
2013-01-30 20:43:00,41.4,38.6,28.80,SW,225,5.1,6.0,90,0.02,,,0.27,WUHU21623XXSP,2013-01-31 01:43:00,
2013-01-30 20:48:00,41.2,38.4,28.82,South,180,2.9,5.1,90,0.02,,,0.27,WUHU21623XXSP,2013-01-31 01:48:00,
2013-01-30 20:53:00,40.8,37.3,28.81,South,180,2.0,4.3,88,0.02,,,0.27,WUHU21623XXSP,2013-01-31 01:53:00,
2013-01-30 20:58:00,40.6,37.1,28.82,WSW,247,5.1,5.1,88,0.02,,,0.27,WUHU21623XXSP,2013-01-31 01:58:00,
2013-01-30 21:03:00,40.5,37.0,28.82,SSW,202,2.2,5.1,88,0.00,,,0.27,WUHU21623XXSP,2013-01-31 02:03:00,
2013-01-30 21:08:00,40.3,36.9,28.82,South,180,2.0,2.2,88,0.00,,,0.27,WUHU21623XXSP,2013-01-31 02:08:00,
2013-01-30 21:13:00,40.1,36.7,28.82,South,180,0.0,2.0,88,0.00,,,0.27,WUHU21623XXSP,2013-01-31 02:13:00,
2013-01-30 21:18:00,39.9,36.5,28.82,South,180,5.4,5.4,88,0.00,,,0.27,WUHU21623XXSP,2013-01-31 02:18:00,
2013-01-30 21:23:00,39.6,36.2,28.82,SSW,202,1.8,5.4,88,0.00,,,0.27,WUHU21623XXSP,2013-01-31 02:23:00,
2013-01-30 21:28:00,39.4,36.0,28.82,ESE,112,0.0,2.5,88,0.00,,,0.27,WUHU21623XXSP,2013-01-31 02:28:00,
2013-01-30 21:33:00,38.8,35.4,28.83,SSE,157,0.0,3.4,88,0.00,,,0.27,WUHU21623XXSP,2013-01-31 02:33:00,
2013-01-30 21:38:00,38.8,35.4,28.83,SSW,202,0.0,3.4,88,0.00,,,0.27,WUHU21623XXSP,2013-01-31 02:38:00,
2013-01-30 21:43:00,38.8,35.4,28.84,SW,225,4.5,4.7,88,0.00,,,0.27,WUHU21623XXSP,2013-01-31 02:43:00,
2013-01-30 21:48:00,38.7,35.3,28.83,SW,225,0.0,4.7,88,0.00,,,0.27,WUHU21623XXSP,2013-01-31 02:48:00,
2013-01-30 21:53:00,38.3,34.9,28.82,WSW,247,2.5,6.0,88,0.00,,,0.27,WUHU21623XXSP,2013-01-31 02:53:00,
2013-01-30 21:58:00,38.3,34.9,28.83,SSW,202,1.3,6.0,88,0.00,,,0.27,WUHU21623XXSP,2013-01-31 02:58:00,
2013-01-30 22:03:00,38.1,34.7,28.83,WSW,247,1.1,5.6,88,0.00,,,0.27,WUHU21623XXSP,2013-01-31 03:03:00,
2013-01-30 22:08:00,37.9,34.5,28.82,WNW,292,2.7,2.7,88,0.00,,,0.27,WUHU21623XXSP,2013-01-31 03:08:00,
2013-01-30 22:13:00,37.8,33.7,28.83,WSW,247,0.0,3.6,85,0.00,,,0.27,WUHU21623XXSP,2013-01-31 03:13:00,
2013-01-30 22:18:00,37.8,33.7,28.83,SW,225,0.0,3.6,85,0.00,,,0.27,WUHU21623XXSP,2013-01-31 03:18:00,
2013-01-30 22:23:00,37.6,33.5,28.83,SW,225,0.0,2.9,85,0.00,,,0.27,WUHU21623XXSP,2013-01-31 03:23:00,
2013-01-30 22:28:00,37.4,33.3,28.83,WSW,247,1.8,3.4,85,0.00,,,0.27,WUHU21623XXSP,2013-01-31 03:28:00,
2013-01-30 22:33:00,37.2,33.1,28.83,SW,225,1.8,3.6,85,0.00,,,0.27,WUHU21623XXSP,2013-01-31 03:33:00,
2013-01-30 22:38:00,37.2,33.8,28.84,SW,225,5.1,8.5,88,0.00,,,0.27,WUHU21623XXSP,2013-01-31 03:38:00,
2013-01-30 22:43:00,36.9,32.8,28.85,WSW,247,6.7,8.5,85,0.00,,,0.27,WUHU21623XXSP,2013-01-31 03:43:00,
2013-01-30 22:48:00,36.5,31.7,28.85,WNW,292,0.0,6.7,83,0.00,,,0.27,WUHU21623XXSP,2013-01-31 03:48:00,
2013-01-30 22:54:00,36.1,31.3,28.85,WNW,292,0.0,4.9,83,0.02,,,0.29,WUHU21623XXSP,2013-01-31 03:54:00,
2013-01-30 22:59:00,35.8,31.0,28.85,WNW,292,4.5,4.5,83,0.02,,,0.29,WUHU21623XXSP,2013-01-31 03:59:00,
2013-01-30 23:04:00,35.2,29.7,28.86,WNW,292,7.2,7.2,80,0.02,,,0.29,WUHU21623XXSP,2013-01-31 04:04:00,
2013-01-30 23:08:00,34.7,27.6,28.86,WNW,292,5.4,7.2,75,0.02,,,0.29,WUHU21623XXSP,2013-01-31 04:08:00,
2013-01-30 23:14:00,34.3,27.2,28.87,WSW,247,3.1,5.4,75,0.02,,,0.29,WUHU21623XXSP,2013-01-31 04:14:00,
2013-01-30 23:19:00,34.0,27.0,28.86,SW,225,2.0,4.0,75,0.02,,,0.29,WUHU21623XXSP,2013-01-31 04:19:00,
2013-01-30 23:24:00,33.6,25.8,28.87,West,270,2.5,5.8,73,0.02,,,0.29,WUHU21623XXSP,2013-01-31 04:24:00,
2013-01-30 23:29:00,33.1,22.7,28.88,WSW,247,3.1,8.5,65,0.02,,,0.29,WUHU21623XXSP,2013-01-31 04:29:00,
2013-01-30 23:34:00,32.9,23.4,28.88,SW,225,3.1,8.5,68,0.02,,,0.29,WUHU21623XXSP,2013-01-31 04:34:00,
2013-01-30 23:39:00,32.7,21.4,28.89,WNW,292,8.7,8.7,63,0.02,,,0.29,WUHU21623XXSP,2013-01-31 04:39:00,
2013-01-30 23:44:00,32.5,21.2,28.89,WNW,292,2.0,8.7,63,0.02,,,0.29,WUHU21623XXSP,2013-01-31 04:44:00,
2013-01-30 23:49:00,32.2,20.9,28.89,SW,225,4.7,4.7,63,0.02,,,0.29,WUHU21623XXSP,2013-01-31 04:49:00,
2013-01-30 23:54:00,32.2,20.9,28.90,SW,225,5.6,5.6,63,0.00,,,0.29,WUHU21623XXSP,2013-01-31 04:54:00,
2013-01-30 23:59:00,32.2,20.9,28.91,SW,225,5.6,5.6,63,0.00,,,0.29,WUHU21623XXSP,2013-01-31 04:59:00,